createdAt,value
2023-05-08T00:01:48.019Z,3.30
2023-05-08T00:05:12.370Z,3.47
2023-05-08T00:08:37.231Z,3.23
2023-05-08T00:12:02.813Z,3.53
2023-05-08T00:15:26.745Z,3.33
2023-05-08T00:18:50.646Z,3.10
2023-05-08T00:22:14.610Z,3.40
2023-05-08T00:25:38.425Z,2.67
2023-05-08T00:29:05.526Z,3.07
2023-05-08T00:32:30.226Z,2.40
2023-05-08T00:36:00.702Z,2.50
2023-05-08T00:39:24.304Z,2.67
2023-05-08T00:42:48.101Z,1.97
2023-05-08T00:46:14.034Z,2.70
2023-05-08T00:49:38.396Z,2.93
2023-05-08T00:53:04.044Z,2.63
2023-05-08T00:56:30.714Z,2.33
2023-05-08T00:59:56.525Z,2.80
2023-05-08T01:03:23.407Z,2.87
2023-05-08T01:06:47.321Z,1.87
2023-05-08T01:10:11.928Z,3.33
2023-05-08T01:13:50.900Z,3.30
2023-05-08T01:17:30.872Z,2.90
2023-05-08T01:21:03.591Z,2.83
2023-05-08T01:24:48.358Z,3.57
2023-05-08T01:28:52.708Z,2.63
2023-05-08T01:32:24.779Z,2.67
2023-05-08T01:35:54.852Z,2.57
2023-05-08T01:39:23.744Z,2.70
2023-05-08T01:42:51.695Z,2.60
2023-05-08T01:46:20.606Z,2.77
2023-05-08T01:49:48.602Z,2.70
2023-05-08T01:53:21.906Z,3.00
2023-05-08T01:56:48.869Z,1.87
2023-05-08T02:00:16.064Z,2.30
2023-05-08T02:03:42.886Z,2.53
2023-05-08T02:07:08.369Z,2.33
2023-05-08T02:10:32.898Z,2.40
2023-05-08T02:13:58.893Z,2.33
2023-05-08T02:17:23.083Z,2.70
2023-05-08T02:20:47.506Z,2.87
2023-05-08T02:24:14.424Z,2.40
2023-05-08T02:27:39.625Z,2.50
2023-05-08T02:31:04.144Z,2.13
2023-05-08T02:34:29.382Z,2.13
2023-05-08T02:37:56.229Z,2.17
2023-05-08T02:41:24.069Z,2.60
2023-05-08T02:44:48.492Z,2.30
2023-05-08T02:48:20.942Z,1.97
2023-05-08T02:51:51.537Z,2.03
2023-05-08T02:55:27.435Z,1.97
2023-05-08T02:59:05.929Z,1.90
2023-05-08T03:02:41.770Z,1.90
2023-05-08T03:06:13.729Z,1.93
2023-05-08T03:09:43.030Z,2.30
2023-05-08T03:13:10.364Z,2.17
2023-05-08T03:16:39.695Z,2.07
2023-05-08T03:20:08.179Z,2.13
2023-05-08T03:23:37.041Z,2.17
2023-05-08T03:27:01.728Z,2.30
2023-05-08T03:30:27.903Z,2.00
2023-05-08T03:34:00.374Z,2.20
2023-05-08T03:37:24.622Z,1.90
2023-05-08T03:40:49.350Z,2.30
2023-05-08T03:44:14.704Z,2.30
2023-05-08T03:47:40.562Z,2.10
2023-05-08T03:51:07.659Z,2.47
2023-05-08T03:54:33.855Z,2.10
2023-05-08T03:58:06.090Z,1.93
2023-05-08T04:01:40.770Z,2.20
2023-05-08T04:05:15.346Z,2.40
2023-05-08T04:08:50.133Z,2.33
2023-05-08T04:12:21.021Z,2.60
2023-05-08T04:15:53.602Z,2.17
2023-05-08T04:19:28.564Z,2.40
2023-05-08T04:22:55.794Z,2.20
2023-05-08T04:26:22.359Z,2.33
2023-05-08T04:29:48.175Z,2.20
2023-05-08T04:33:12.744Z,2.97
2023-05-08T04:36:37.569Z,2.57
2023-05-08T04:40:04.570Z,2.40
2023-05-08T04:43:31.252Z,2.30
2023-05-08T04:46:55.257Z,2.53
2023-05-08T04:50:19.254Z,2.37
2023-05-08T04:53:43.607Z,2.53
2023-05-08T04:57:08.168Z,2.70
2023-05-08T05:00:33.544Z,2.70
2023-05-08T05:03:57.695Z,2.50
2023-05-08T05:07:21.994Z,2.87
2023-05-08T05:10:45.981Z,2.57
2023-05-08T05:14:09.951Z,2.97
2023-05-08T05:17:36.045Z,2.63
2023-05-08T05:21:00.081Z,2.87
2023-05-08T05:24:26.335Z,2.77
2023-05-08T05:27:50.366Z,2.60
2023-05-08T05:31:14.387Z,2.93
2023-05-08T05:34:40.293Z,2.77
2023-05-08T05:38:05.350Z,2.47
2023-05-08T05:41:29.321Z,2.90
2023-05-08T05:44:53.133Z,2.80
2023-05-08T05:48:17.294Z,3.03
2023-05-08T05:51:43.537Z,2.90
2023-05-08T05:55:08.472Z,3.07
2023-05-08T05:58:32.402Z,3.10
2023-05-08T06:01:56.522Z,2.90
2023-05-08T06:05:20.927Z,2.70
2023-05-08T06:08:46.793Z,2.47
2023-05-08T06:12:11.992Z,2.57
2023-05-08T06:15:35.801Z,2.33
2023-05-08T06:19:00.616Z,2.80
2023-05-08T06:22:24.606Z,2.77
2023-05-08T06:25:50.166Z,2.70
2023-05-08T06:29:14.054Z,2.30
2023-05-08T06:32:38.460Z,2.37
2023-05-08T06:36:02.405Z,2.50
2023-05-08T06:39:26.322Z,2.60
2023-05-08T06:42:51.651Z,2.10
2023-05-08T06:46:15.296Z,2.87
2023-05-08T06:49:39.382Z,2.40
2023-05-08T06:53:03.298Z,2.30
2023-05-08T06:56:27.128Z,2.50
2023-05-08T06:59:51.943Z,2.50
2023-05-08T07:03:16.234Z,2.97
2023-05-08T07:06:40.141Z,2.40
2023-05-08T07:10:05.362Z,2.67
2023-05-08T07:13:31.204Z,2.60
2023-05-08T07:16:56.530Z,3.20
2023-05-08T07:20:20.427Z,3.17
2023-05-08T07:23:43.966Z,3.10
2023-05-08T07:27:08.542Z,2.57
2023-05-08T07:30:33.709Z,3.10
2023-05-08T07:33:58.954Z,2.73
2023-05-08T07:37:23.536Z,2.53
2023-05-08T07:40:48.998Z,2.97
2023-05-08T07:44:12.858Z,2.80
2023-05-08T07:47:36.884Z,2.70
2023-05-08T07:51:02.054Z,3.07
2023-05-08T07:54:26.327Z,2.90
2023-05-08T07:57:50.174Z,2.60
2023-05-08T08:01:13.929Z,3.00
2023-05-08T08:04:37.972Z,2.40
2023-05-08T08:08:03.516Z,2.60
2023-05-08T08:11:27.474Z,2.67
2023-05-08T08:14:51.425Z,2.63
2023-05-08T08:18:15.911Z,2.50
2023-05-08T08:21:44.216Z,1.83
2023-05-08T08:25:10.370Z,2.03
2023-05-08T08:28:34.220Z,1.90
2023-05-08T08:31:58.329Z,2.17
2023-05-08T08:35:26.623Z,2.07
2023-05-08T08:38:50.409Z,2.20
2023-05-08T08:42:15.658Z,2.90
2023-05-08T08:45:39.653Z,2.40
2023-05-08T08:49:06.870Z,3.00
2023-05-08T08:52:38.412Z,2.97
2023-05-08T08:56:03.909Z,3.00
2023-05-08T08:59:29.872Z,3.30
2023-05-08T09:02:54.118Z,3.40
2023-05-08T09:06:18.387Z,3.20
2023-05-08T09:09:44.360Z,3.00
2023-05-08T09:13:08.278Z,3.20
2023-05-08T09:16:33.978Z,3.30
2023-05-08T09:19:58.043Z,3.03
2023-05-08T09:23:22.212Z,3.60
2023-05-08T09:26:46.168Z,3.90
2023-05-08T09:30:11.595Z,3.77
2023-05-08T09:33:45.893Z,3.77
2023-05-08T09:37:14.145Z,3.97
2023-05-08T09:40:38.199Z,3.50
2023-05-08T09:44:04.416Z,3.53
2023-05-08T09:47:28.380Z,3.53
2023-05-08T09:51:07.527Z,4.20
2023-05-08T09:54:32.744Z,4.10
2023-05-08T09:57:59.442Z,4.40
2023-05-08T10:01:31.679Z,3.73
2023-05-08T10:04:57.736Z,3.70
2023-05-08T10:08:27.907Z,4.13
2023-05-08T10:11:56.407Z,3.60
2023-05-08T10:15:25.716Z,3.33
2023-05-08T10:18:57.895Z,3.27
2023-05-08T10:22:29.691Z,3.30
2023-05-08T10:26:09.142Z,3.20
2023-05-08T10:29:45.307Z,3.67
2023-05-08T10:33:18.582Z,3.00
2023-05-08T10:36:48.132Z,3.20
2023-05-08T10:40:16.088Z,3.47
2023-05-08T10:43:44.076Z,2.60
2023-05-08T10:47:16.517Z,3.13
2023-05-08T10:50:59.523Z,2.60
2023-05-08T10:54:35.039Z,3.10
2023-05-08T10:58:16.021Z,2.40
2023-05-08T11:01:41.332Z,2.40
2023-05-08T11:05:18.139Z,2.10
2023-05-08T11:08:54.614Z,2.50
2023-05-08T11:12:24.012Z,2.03
2023-05-08T11:15:51.802Z,2.20
2023-05-08T11:19:21.112Z,2.30
2023-05-08T11:22:49.113Z,2.57
2023-05-08T11:26:16.602Z,3.00
2023-05-08T11:29:40.500Z,2.70
2023-05-08T11:33:30.374Z,2.90
2023-05-08T11:37:04.428Z,3.30
2023-05-08T11:40:47.907Z,3.30
2023-05-08T11:44:20.711Z,3.37
2023-05-08T11:47:46.055Z,3.23
2023-05-08T11:51:10.468Z,3.70
2023-05-08T11:54:36.153Z,3.60
2023-05-08T11:58:00.129Z,3.53
2023-05-08T12:01:23.978Z,3.33
2023-05-08T12:04:48.520Z,4.20
2023-05-08T12:08:13.538Z,4.60
2023-05-08T12:11:41.212Z,3.83
2023-05-08T12:15:09.031Z,4.80
2023-05-08T12:18:32.980Z,4.43
2023-05-08T12:21:58.921Z,4.33
2023-05-08T12:25:22.849Z,3.70
2023-05-08T12:28:48.460Z,4.43
2023-05-08T12:32:12.656Z,4.80
2023-05-08T12:35:37.889Z,4.40
2023-05-08T12:39:12.599Z,4.40
2023-05-08T12:42:46.954Z,4.57
2023-05-08T12:46:14.544Z,4.17
2023-05-08T12:49:39.350Z,4.07
2023-05-08T12:53:06.979Z,4.30
2023-05-08T12:56:30.867Z,3.80
2023-05-08T13:00:05.454Z,4.03
2023-05-08T13:03:33.106Z,4.00
2023-05-08T13:06:58.099Z,3.23
2023-05-08T13:10:23.985Z,4.20
2023-05-08T13:13:48.812Z,3.50
2023-05-08T13:17:17.615Z,3.77
2023-05-08T13:20:43.474Z,3.17
2023-05-08T13:24:08.116Z,4.30
2023-05-08T13:27:32.029Z,4.00
2023-05-08T13:30:55.930Z,3.67
2023-05-08T13:34:19.821Z,4.57
2023-05-08T13:37:45.256Z,3.77
2023-05-08T13:41:09.102Z,4.93
2023-05-08T13:44:33.011Z,4.40
2023-05-08T13:47:57.043Z,3.73
2023-05-08T13:51:21.071Z,4.37
2023-05-08T13:54:46.284Z,4.13
2023-05-08T13:58:10.267Z,4.10
2023-05-08T14:01:34.165Z,4.73
2023-05-08T14:04:58.143Z,4.73
2023-05-08T14:08:22.011Z,4.87
2023-05-08T14:11:47.358Z,4.83
2023-05-08T14:15:12.701Z,5.00
2023-05-08T14:18:37.268Z,4.93
2023-05-08T14:22:02.177Z,3.90
2023-05-08T14:25:26.127Z,4.27
2023-05-08T14:28:51.355Z,4.67
2023-05-08T14:32:15.468Z,4.23
2023-05-08T14:35:43.094Z,4.77
2023-05-08T14:39:06.911Z,4.20
2023-05-08T14:42:33.441Z,4.30
2023-05-08T14:45:58.952Z,4.10
2023-05-08T14:49:35.777Z,4.20
2023-05-08T14:53:01.337Z,3.70
2023-05-08T14:56:26.028Z,4.57
2023-05-08T14:59:54.914Z,4.27
2023-05-08T15:03:20.769Z,3.83
2023-05-08T15:06:44.780Z,5.03
2023-05-08T15:10:09.181Z,3.87
2023-05-08T15:13:33.336Z,5.70
2023-05-08T15:16:56.951Z,4.83
2023-05-08T15:20:22.247Z,4.80
2023-05-08T15:23:46.240Z,4.60
2023-05-08T15:27:11.699Z,5.03
2023-05-08T15:30:35.649Z,5.37
2023-05-08T15:33:59.465Z,5.03
2023-05-08T15:37:24.918Z,4.67
2023-05-08T15:40:48.720Z,4.80
2023-05-08T15:44:13.883Z,5.37
2023-05-08T15:47:37.454Z,5.60
2023-05-08T15:51:01.493Z,5.70
2023-05-08T15:54:26.844Z,6.80
2023-05-08T15:57:50.468Z,5.90
2023-05-08T16:01:14.513Z,5.90
2023-05-08T16:04:38.176Z,4.87
2023-05-08T16:08:02.181Z,5.30
2023-05-08T16:11:30.987Z,5.20
2023-05-08T16:14:54.827Z,5.37
2023-05-08T16:18:18.751Z,4.70
2023-05-08T16:21:42.605Z,5.67
2023-05-08T16:25:07.685Z,5.53
2023-05-08T16:28:33.018Z,5.40
2023-05-08T16:31:57.328Z,6.00
2023-05-08T16:35:23.006Z,5.00
2023-05-08T16:38:47.355Z,5.50
2023-05-08T16:42:11.321Z,6.43
2023-05-08T16:45:36.773Z,5.00
2023-05-08T16:49:00.559Z,6.00
2023-05-08T16:52:24.540Z,5.10
2023-05-08T16:55:48.448Z,5.10
2023-05-08T16:59:12.549Z,5.23
2023-05-08T17:02:38.960Z,6.13
2023-05-08T17:06:06.362Z,5.50
2023-05-08T17:09:30.292Z,5.40
2023-05-08T17:12:54.385Z,5.70
2023-05-08T17:16:20.506Z,4.70
2023-05-08T17:19:45.951Z,5.53
2023-05-08T17:23:10.076Z,5.97
2023-05-08T17:26:34.334Z,5.27
2023-05-08T17:29:58.356Z,4.57
2023-05-08T17:33:22.490Z,4.67
2023-05-08T17:36:47.938Z,5.13
2023-05-08T17:40:12.971Z,4.53
2023-05-08T17:43:37.242Z,4.07
2023-05-08T17:47:01.319Z,4.00
2023-05-08T17:50:25.772Z,4.17
2023-05-08T17:53:53.085Z,4.20
2023-05-08T17:57:17.161Z,3.90
2023-05-08T18:00:41.053Z,4.00
2023-05-08T18:04:05.304Z,4.00
2023-05-08T18:07:29.410Z,4.10
2023-05-08T18:10:54.924Z,4.43
2023-05-08T18:14:18.912Z,3.40
2023-05-08T18:17:43.106Z,3.90
2023-05-08T18:21:07.599Z,3.67
2023-05-08T18:24:31.735Z,3.20
2023-05-08T18:27:58.828Z,3.80
2023-05-08T18:31:22.772Z,3.60
2023-05-08T18:34:46.949Z,3.80
2023-05-08T18:38:11.037Z,4.47
2023-05-08T18:41:36.233Z,3.40
2023-05-08T18:45:01.442Z,3.87
2023-05-08T18:48:26.855Z,3.97
2023-05-08T18:51:51.043Z,3.87
2023-05-08T18:55:15.005Z,3.53
2023-05-08T18:58:39.316Z,4.10
2023-05-08T19:02:04.440Z,3.50
2023-05-08T19:05:28.590Z,4.27
2023-05-08T19:08:52.725Z,4.30
2023-05-08T19:12:16.847Z,3.47
2023-05-08T19:15:41.188Z,3.80
2023-05-08T19:19:07.016Z,4.10
2023-05-08T19:22:32.847Z,3.87
2023-05-08T19:25:57.708Z,3.77
2023-05-08T19:29:21.254Z,3.50
2023-05-08T19:32:44.908Z,4.60
2023-05-08T19:36:10.468Z,3.77
2023-05-08T19:39:34.011Z,4.83
2023-05-08T19:42:57.829Z,4.40
2023-05-08T19:46:21.782Z,4.80
2023-05-08T19:49:45.741Z,4.30
2023-05-08T19:53:11.193Z,4.40
2023-05-08T19:56:35.293Z,3.97
2023-05-08T19:59:59.124Z,4.70
2023-05-08T20:03:22.992Z,5.00
2023-05-08T20:06:47.027Z,4.80
2023-05-08T20:10:12.805Z,4.90
2023-05-08T20:13:36.865Z,5.10
2023-05-08T20:17:00.759Z,4.27
2023-05-08T20:20:25.125Z,4.13
2023-05-08T20:23:49.116Z,4.63
2023-05-08T20:27:14.315Z,4.63
2023-05-08T20:30:38.343Z,3.80
2023-05-08T20:34:02.047Z,4.00
2023-05-08T20:37:26.096Z,3.67
2023-05-08T20:40:50.185Z,4.07
2023-05-08T20:44:17.623Z,4.27
2023-05-08T20:47:41.564Z,3.63
2023-05-08T20:51:05.873Z,4.50
2023-05-08T20:54:30.840Z,4.17
2023-05-08T20:57:54.685Z,4.30
2023-05-08T21:01:21.022Z,3.70
2023-05-08T21:04:45.107Z,3.90
2023-05-08T21:08:09.229Z,3.90
2023-05-08T21:11:33.066Z,4.10
2023-05-08T21:14:56.917Z,3.80
2023-05-08T21:18:22.202Z,4.87
2023-05-08T21:21:46.087Z,4.40
2023-05-08T21:25:12.646Z,4.20
2023-05-08T21:28:38.466Z,4.87
2023-05-08T21:32:02.388Z,4.60
2023-05-08T21:35:27.658Z,4.67
2023-05-08T21:38:53.260Z,4.80
2023-05-08T21:42:17.399Z,4.30
2023-05-08T21:45:41.614Z,4.67
2023-05-08T21:49:05.547Z,4.47
2023-05-08T21:52:30.781Z,4.83
2023-05-08T21:55:54.628Z,5.07
2023-05-08T21:59:18.631Z,4.70
2023-05-08T22:02:42.598Z,5.97
2023-05-08T22:06:07.280Z,5.20
2023-05-08T22:09:32.137Z,5.33
2023-05-08T22:12:56.178Z,5.73
2023-05-08T22:16:20.068Z,5.60
2023-05-08T22:19:45.733Z,5.37
2023-05-08T22:23:09.241Z,4.90
2023-05-08T22:26:34.463Z,5.03
2023-05-08T22:30:00.235Z,5.20
2023-05-08T22:33:23.784Z,4.80
2023-05-08T22:36:47.576Z,5.53
2023-05-08T22:40:12.102Z,5.00
2023-05-08T22:43:38.078Z,4.50
2023-05-08T22:47:02.575Z,4.93
2023-05-08T22:50:26.187Z,5.10
2023-05-08T22:53:49.757Z,4.53
2023-05-08T22:57:14.186Z,5.60
2023-05-08T23:00:39.117Z,5.80
2023-05-08T23:04:02.973Z,5.87
2023-05-08T23:07:26.819Z,5.37
2023-05-08T23:10:50.720Z,4.73
2023-05-08T23:14:14.582Z,4.63
2023-05-08T23:17:39.787Z,5.40
2023-05-08T23:21:06.708Z,5.70
2023-05-08T23:24:30.507Z,4.90
2023-05-08T23:27:54.381Z,5.23
2023-05-08T23:31:18.691Z,5.20
2023-05-08T23:34:44.540Z,5.43
2023-05-08T23:38:08.890Z,4.53
2023-05-08T23:41:34.031Z,5.30
2023-05-08T23:44:57.693Z,5.70
2023-05-08T23:48:21.507Z,5.83
2023-05-08T23:51:46.389Z,5.87
2023-05-08T23:55:10.555Z,6.20
2023-05-08T23:58:34.412Z,6.00
